Time;durP1;ratioP1;P1;durP2;ratioP2;P2;SDS_P1;SDS_P2;PMS_P1;PMS_P2;Temp;Humidity;BMP_temperature;BMP_pressure;BME280_temperature;BME280_humidity;BME280_pressure;Samples;Min_cycle;Max_cycle;Signal;HPM_P1;HPM_P2
2022/05/06 00:00:07;;;;;;;11.50;7.22;;;;;;;6.26;88.09;102425.50;2087547;28;46140;-65
2022/05/06 00:01:10;;;;;;;11.43;6.82;;;;;;;6.27;88.21;102429.03;2080163;28;20049;-65
2022/05/06 00:02:11;;;;;;;10.82;6.82;;;;;;;6.25;88.31;102429.00;2080040;28;44314;-65
2022/05/06 00:03:15;;;;;;;8.73;6.95;;;;;;;6.23;88.21;102430.75;2088606;28;44628;-65
2022/05/06 00:04:17;;;;;;;10.27;7.07;;;;;;;6.24;88.93;102431.63;2088360;28;44162;-65
2022/05/06 00:05:21;;;;;;;11.15;6.97;;;;;;;6.23;89.24;102435.19;2079339;28;44142;-65
2022/05/06 00:06:23;;;;;;;8.98;6.18;;;;;;;6.21;89.16;102435.16;2080127;28;44745;-65
2022/05/06 00:07:24;;;;;;;11.60;6.28;;;;;;;6.19;87.99;102436.88;2088090;28;45473;-66
2022/05/06 00:08:26;;;;;;;8.00;5.78;;;;;;;6.18;88.77;102439.50;2088462;28;32337;-65
2022/05/06 00:09:28;;;;;;;8.95;5.53;;;;;;;6.16;88.26;102430.63;2088249;28;43769;-65
2022/05/06 00:10:29;;;;;;;7.47;5.47;;;;;;;6.15;87.58;102439.44;2088368;28;46544;-66
2022/05/06 00:11:32;;;;;;;9.60;6.43;;;;;;;6.12;87.83;102440.31;2089030;28;20046;-65
2022/05/06 00:12:34;;;;;;;9.32;6.53;;;;;;;6.08;88.36;102431.38;2088345;28;44290;-66
2022/05/06 00:13:38;;;;;;;8.85;5.90;;;;;;;6.10;87.89;102436.69;2088993;28;20045;-65
2022/05/06 00:14:40;;;;;;;8.70;6.65;;;;;;;6.07;88.88;102437.53;2088313;28;45477;-65
2022/05/06 00:15:41;;;;;;;10.40;6.55;;;;;;;6.04;88.85;102434.81;2087775;28;45341;-66
2022/05/06 00:16:43;;;;;;;10.18;6.60;;;;;;;6.03;88.77;102430.38;2087828;28;44800;-65
2022/05/06 00:17:47;;;;;;;15.15;7.70;;;;;;;6.01;88.70;102431.19;2088751;28;45302;-65
2022/05/06 00:18:50;;;;;;;10.15;6.88;;;;;;;6.00;88.65;102440.94;2088242;28;46548;-64
2022/05/06 00:19:52;;;;;;;12.70;7.75;;;;;;;5.99;89.25;102435.59;2088746;28;31402;-64
2022/05/06 00:20:55;;;;;;;11.80;6.88;;;;;;;5.97;88.50;102427.56;2088499;28;44289;-65
2022/05/06 00:21:57;;;;;;;10.73;6.40;;;;;;;5.96;89.64;102433.78;2088173;28;45673;-65
2022/05/06 00:23:00;;;;;;;9.23;6.55;;;;;;;5.95;89.27;102431.94;2088146;28;44794;-65
2022/05/06 00:24:04;;;;;;;9.52;7.00;;;;;;;5.93;88.84;102431.00;2087236;28;44923;-65
2022/05/06 00:25:07;;;;;;;9.95;6.80;;;;;;;5.92;88.86;102431.84;2088414;28;43521;-65
2022/05/06 00:26:10;;;;;;;10.40;7.28;;;;;;;5.91;88.91;102435.41;2087330;28;45325;-65
2022/05/06 00:27:13;;;;;;;12.02;7.47;;;;;;;5.89;88.99;102434.47;2088509;28;20049;-65
2022/05/06 00:28:15;;;;;;;10.80;7.22;;;;;;;5.88;90.14;102438.88;2088831;28;29053;-65
2022/05/06 00:29:16;;;;;;;9.77;6.97;;;;;;;5.88;89.11;102440.66;2088514;28;46488;-65
2022/05/06 00:30:19;;;;;;;9.52;7.07;;;;;;;5.85;89.88;102433.53;2080145;28;24193;-65
2022/05/06 00:31:20;;;;;;;10.02;7.00;;;;;;;5.82;89.89;102441.41;2080086;28;20169;-65
2022/05/06 00:32:22;;;;;;;11.73;7.00;;;;;;;5.82;88.80;102435.22;2086823;28;43744;-66
2022/05/06 00:33:24;;;;;;;9.98;7.22;;;;;;;5.82;89.83;102443.19;2078518;28;35998;-65
2022/05/06 00:34:27;;;;;;;10.48;7.22;;;;;;;5.81;89.68;102444.03;2070661;28;46554;-65
2022/05/06 00:35:28;;;;;;;12.52;7.97;;;;;;;5.80;89.83;102442.28;2078564;28;43805;-65
2022/05/06 00:36:30;;;;;;;10.38;6.43;;;;;;;5.79;90.41;102437.81;2088319;28;35462;-65
2022/05/06 00:37:32;;;;;;;9.77;5.80;;;;;;;5.77;89.79;102443.09;2089154;28;20038;-64
2022/05/06 00:38:34;;;;;;;10.73;7.63;;;;;;;5.73;89.01;102446.53;2088988;28;20046;-65
2022/05/06 00:39:36;;;;;;;7.72;6.20;;;;;;;5.72;89.23;102444.75;2088794;28;20895;-65
2022/05/06 00:40:39;;;;;;;10.88;7.68;;;;;;;5.68;90.09;102449.09;2079604;28;42905;-64
2022/05/06 00:41:41;;;;;;;13.20;7.50;;;;;;;5.68;89.68;102443.78;2070840;28;43215;-65
2022/05/06 00:42:44;;;;;;;11.38;7.30;;;;;;;5.66;89.68;102445.50;2080085;28;20894;-65
2022/05/06 00:43:46;;;;;;;12.30;7.13;;;;;;;5.68;90.14;102448.19;2087972;28;43253;-65
2022/05/06 00:44:47;;;;;;;9.15;7.25;;;;;;;5.68;90.13;102445.53;2088085;28;45604;-65
2022/05/06 00:45:56;;;;;;;11.13;7.72;;;;;;;5.67;89.86;102443.75;2089250;28;20087;-64
2022/05/06 00:46:59;;;;;;;10.88;7.32;;;;;;;5.67;90.57;102447.31;2079742;28;20042;-65
2022/05/06 00:48:01;;;;;;;13.05;7.80;;;;;;;5.64;90.67;102447.25;2071122;28;45262;-67
2022/05/06 00:49:03;;;;;;;11.48;7.20;;;;;;;5.64;89.92;102449.00;2079866;28;28156;-65
2022/05/06 00:50:05;;;;;;;10.70;7.45;;;;;;;5.60;90.71;102440.06;2079102;28;42737;-65
2022/05/06 00:51:08;;;;;;;7.13;6.40;;;;;;;5.59;90.22;102451.56;2079494;28;45762;-65
2022/05/06 00:52:10;;;;;;;9.98;7.18;;;;;;;5.57;90.03;102444.44;2078826;28;40475;-65
2022/05/06 00:53:13;;;;;;;11.70;7.85;;;;;;;5.56;89.89;102448.81;2078106;28;39652;-65
2022/05/06 00:54:15;;;;;;;10.95;6.70;;;;;;;5.54;90.62;102446.16;2088110;28;39176;-64
2022/05/06 00:55:17;;;;;;;11.82;7.47;;;;;;;5.53;90.36;102443.47;2079609;28;20883;-64
2022/05/06 00:56:24;;;;;;;10.50;7.05;;;;;;;5.52;90.99;102446.97;2079533;28;40432;-64
2022/05/06 00:57:27;;;;;;;12.20;8.13;;;;;;;5.49;90.64;102442.50;2087461;28;42996;-65
2022/05/06 00:58:31;;;;;;;11.82;6.90;;;;;;;5.46;90.72;102438.88;2087526;28;45816;-65
2022/05/06 01:00:17;;;;;;;10.30;6.82;;;;;;;5.45;89.63;102447.69;2078983;28;42216;-65
2022/05/06 01:00:56;;;;;;;10.80;7.80;;;;;;;5.43;89.93;102446.75;2073876;28;45739;-65
2022/05/06 01:01:58;;;;;;;12.18;8.63;;;;;;;5.39;91.05;102444.91;2071740;28;20164;-65
2022/05/06 01:03:00;;;;;;;11.05;8.30;;;;;;;5.37;90.89;102450.19;2080625;28;22546;-65
2022/05/06 01:04:06;;;;;;;11.85;8.70;;;;;;;5.34;90.24;102448.34;2087781;28;20167;-65
2022/05/06 01:05:09;;;;;;;16.00;8.68;;;;;;;5.32;90.78;102444.75;2071697;28;20710;-65
2022/05/06 01:06:13;;;;;;;8.57;6.90;;;;;;;5.33;91.51;102449.22;2063601;28;39929;-65
2022/05/06 01:07:21;;;;;;;11.65;7.15;;;;;;;5.31;90.58;102442.97;2072147;28;20141;-65
2022/05/06 01:08:23;;;;;;;14.35;8.18;;;;;;;5.30;90.39;102446.47;2063197;28;20051;-65
2022/05/06 01:09:27;;;;;;;13.80;8.70;;;;;;;5.29;91.79;102449.09;2073365;28;20435;-65
2022/05/06 01:10:29;;;;;;;10.18;7.93;;;;;;;5.28;90.85;102455.28;2088128;28;20123;-64
2022/05/06 01:11:33;;;;;;;11.65;8.35;;;;;;;5.25;91.58;102450.78;2079635;28;20769;-66
2022/05/06 01:12:36;;;;;;;11.75;8.43;;;;;;;5.24;91.69;102451.66;2071555;28;20947;-66
2022/05/06 01:13:46;;;;;;;12.95;7.85;;;;;;;5.23;91.20;102448.97;2072147;28;20038;-66
2022/05/06 01:14:58;;;;;;;12.70;8.88;;;;;;;5.23;91.56;102449.84;2072653;28;20054;-65
2022/05/06 01:16:11;;;;;;;11.95;8.52;;;;;;;5.25;91.81;102452.56;2072841;28;20046;-66
2022/05/06 01:17:18;;;;;;;13.63;7.97;;;;;;;5.26;91.72;102449.06;2072328;28;20026;-66
2022/05/06 01:18:20;;;;;;;13.38;9.00;;;;;;;5.25;91.37;102456.09;2071733;28;20560;-66
2022/05/06 01:19:22;;;;;;;13.73;10.02;;;;;;;5.29;91.46;102452.69;2079170;28;42470;-66
2022/05/06 01:20:26;;;;;;;12.45;9.60;;;;;;;5.29;92.36;102449.09;2087665;28;42962;-66
2022/05/06 01:21:34;;;;;;;11.93;9.07;;;;;;;5.30;91.92;102451.78;2078876;28;45386;-65
2022/05/06 01:22:36;;;;;;;12.95;8.05;;;;;;;5.31;92.09;102452.69;2071703;28;43146;-66
2022/05/06 01:23:37;;;;;;;11.20;8.15;;;;;;;5.31;91.29;102452.69;2079897;28;39688;-65
2022/05/06 01:24:40;;;;;;;11.10;7.78;;;;;;;5.31;92.19;102456.25;2088894;28;20034;-66
2022/05/06 01:25:44;;;;;;;14.85;8.43;;;;;;;5.31;91.27;102458.91;2079382;28;44135;-65
2022/05/06 01:27:03;;;;;;;11.10;9.18;;;;;;;5.31;92.06;102463.31;2071441;28;23281;-65
2022/05/06 01:28:06;;;;;;;11.20;7.50;;;;;;;5.34;91.23;102458.06;2062787;28;41543;-65
2022/05/06 01:29:09;;;;;;;9.73;7.40;;;;;;;5.37;91.75;102457.25;2065397;28;20109;-66
2022/05/06 01:30:27;;;;;;;14.35;8.73;;;;;;;5.39;92.26;102460.84;2079032;28;44932;-65
2022/05/06 01:31:29;;;;;;;12.25;8.32;;;;;;;5.42;91.62;102460.91;2070240;28;45656;-65
2022/05/06 01:32:33;;;;;;;10.50;7.13;;;;;;;5.45;91.10;102455.66;2064803;28;44527;-65
2022/05/06 01:33:37;;;;;;;11.90;8.07;;;;;;;5.47;90.88;102454.84;2055045;28;42753;-65
2022/05/06 01:34:41;;;;;;;11.30;8.27;;;;;;;5.50;91.16;102461.97;2064015;28;27928;-65
2022/05/06 01:35:54;;;;;;;11.57;8.98;;;;;;;5.53;91.74;102459.41;2071634;28;20046;-65
2022/05/06 01:37:01;;;;;;;10.90;7.22;;;;;;;5.58;90.79;102457.75;2054816;28;44146;-65
2022/05/06 01:38:05;;;;;;;9.27;7.38;;;;;;;5.63;91.43;102457.84;2065584;28;20058;-65
2022/05/06 01:39:11;;;;;;;11.15;9.00;;;;;;;5.69;91.76;102460.63;2071686;28;20093;-65
2022/05/06 01:40:18;;;;;;;14.45;9.52;;;;;;;5.74;92.05;102462.53;2059653;28;20046;-64
2022/05/06 01:41:26;;;;;;;10.23;7.28;;;;;;;5.78;91.75;102459.91;2081122;28;20046;-65
2022/05/06 01:42:41;;;;;;;10.02;8.00;;;;;;;5.82;90.72;102457.38;2071401;28;20059;-64
2022/05/06 01:43:50;;;;;;;12.38;8.30;;;;;;;5.84;90.66;102458.28;2065824;28;20315;-64
2022/05/06 01:44:55;;;;;;;12.05;8.02;;;;;;;5.87;91.38;102462.78;2063218;28;44061;-65
2022/05/06 01:45:57;;;;;;;9.77;7.43;;;;;;;5.87;91.27;102462.78;2071475;28;25026;-65
2022/05/06 01:47:02;;;;;;;9.80;7.45;;;;;;;5.89;90.75;102458.41;2078822;28;45943;-64
2022/05/06 01:48:09;;;;;;;11.65;7.88;;;;;;;5.90;90.68;102462.84;2079771;28;44433;-64
2022/05/06 01:49:14;;;;;;;12.95;8.48;;;;;;;5.92;91.09;102467.34;2080115;28;20030;-65
2022/05/06 01:50:17;;;;;;;13.18;8.85;;;;;;;5.92;91.15;102461.09;2064299;28;20543;-65
2022/05/06 01:51:20;;;;;;;11.75;8.23;;;;;;;5.92;90.33;102463.75;2072410;28;20051;-64
2022/05/06 01:52:24;;;;;;;13.43;9.15;;;;;;;5.92;90.93;102469.06;2087331;28;20096;-65
2022/05/06 01:53:27;;;;;;;12.82;9.52;;;;;;;5.92;90.43;102469.06;2071226;28;20097;-65
2022/05/06 01:54:29;;;;;;;12.25;9.57;;;;;;;5.93;91.42;102462.91;2070616;28;27524;-65
2022/05/06 01:55:31;;;;;;;13.52;8.82;;;;;;;5.94;90.59;102464.72;2078807;28;45970;-64
2022/05/06 01:56:36;;;;;;;14.43;9.20;;;;;;;5.96;90.66;102460.34;2079160;28;20050;-65
2022/05/06 01:57:38;;;;;;;13.82;9.48;;;;;;;5.96;90.20;102463.00;2079385;28;20049;-65
2022/05/06 01:58:40;;;;;;;14.35;9.57;;;;;;;5.96;90.96;102462.09;2079465;28;20189;-65
2022/05/06 01:59:43;;;;;;;13.93;9.82;;;;;;;5.96;91.31;102464.75;2079069;28;20046;-65
2022/05/06 02:00:49;;;;;;;11.82;8.93;;;;;;;5.95;90.74;102461.19;2079466;28;20949;-65
2022/05/06 02:01:58;;;;;;;12.55;9.32;;;;;;;5.93;91.27;102460.25;2064196;28;20039;-65
2022/05/06 02:05:16;;;;;;;12.68;9.18;;;;;;;5.92;91.19;102463.75;2072241;28;20116;-64
2022/05/06 02:05:49;;;;;;;13.13;9.50;;;;;;;5.87;90.15;102454.81;2071134;28;20054;-64
2022/05/06 02:06:51;;;;;;;16.13;9.85;;;;;;;5.84;90.87;102454.75;2071162;28;20113;-64
2022/05/06 02:07:57;;;;;;;12.10;9.10;;;;;;;5.82;90.72;102457.38;2063254;28;20042;-64
2022/05/06 02:08:59;;;;;;;12.70;9.52;;;;;;;5.80;91.33;102456.44;2056026;28;20162;-64
2022/05/06 02:10:11;;;;;;;11.98;9.48;;;;;;;5.77;90.04;102458.13;2064952;28;20097;-64
2022/05/06 02:11:16;;;;;;;17.50;10.50;;;;;;;5.71;90.49;102459.78;2063579;28;20129;-64
2022/05/06 02:12:17;;;;;;;17.75;11.02;;;;;;;5.69;90.12;102453.56;2071542;28;20966;-64
2022/05/06 02:13:34;;;;;;;14.82;10.60;;;;;;;5.65;91.39;102451.72;2077797;28;20120;-65
2022/05/06 02:14:51;;;;;;;12.88;9.55;;;;;;;5.63;90.75;102461.38;2071050;28;20046;-65
2022/05/06 02:16:12;;;;;;;14.60;9.55;;;;;;;5.60;91.56;102456.03;2073941;28;20054;-64
2022/05/06 02:17:47;;;;;;;14.27;9.68;;;;;;;5.54;91.51;102467.41;2058485;28;20059;-63
2022/05/06 02:19:07;;;;;;;15.80;10.90;;;;;;;5.52;90.80;102458.47;2078500;28;20049;-64
2022/05/06 02:20:32;;;;;;;14.55;9.35;;;;;;;5.51;91.40;102462.03;2070896;28;20046;-64
2022/05/06 02:21:34;;;;;;;16.20;11.20;;;;;;;5.51;91.18;102458.47;2070415;28;31060;-63
2022/05/06 02:22:58;;;;;;;13.85;9.30;;;;;;;5.51;91.31;102462.03;2070710;28;20042;-64
2022/05/06 02:24:04;;;;;;;14.73;9.68;;;;;;;5.51;92.06;102455.81;2070822;28;20046;-65
2022/05/06 02:25:11;;;;;;;15.43;9.70;;;;;;;5.48;91.82;102461.06;2063878;28;20054;-66
2022/05/06 02:26:19;;;;;;;14.65;10.82;;;;;;;5.52;91.88;102453.16;2072449;28;20145;-64
2022/05/06 02:27:25;;;;;;;18.17;11.40;;;;;;;5.57;92.69;102453.28;2070744;28;20073;-64
2022/05/06 02:28:30;;;;;;;15.32;10.23;;;;;;;5.56;91.65;102454.13;2064053;28;20043;-65
2022/05/06 02:29:36;;;;;;;14.20;9.82;;;;;;;5.54;91.97;102453.22;2063486;28;20911;-64
2022/05/06 02:33:24;;;;;;;;;;;;;;;5.48;91.91;102467.25;2076899;28;21025;-65
2022/05/06 02:34:37;;;;;;;15.25;9.95;;;;;;;5.47;92.49;102461.91;2072603;28;19921;-64
2022/05/06 02:35:46;;;;;;;14.40;9.70;;;;;;;5.49;92.63;102452.19;2071564;28;20172;-63
2022/05/06 02:36:57;;;;;;;14.32;9.23;;;;;;;5.51;92.60;102461.13;2080863;28;20085;-65
2022/05/06 02:38:11;;;;;;;14.07;9.38;;;;;;;5.56;92.97;102454.13;2079115;28;20167;-64
2022/05/06 02:39:14;;;;;;;16.15;11.27;;;;;;;5.59;91.92;102459.53;2071797;28;20050;-65
2022/05/06 02:40:16;;;;;;;17.55;10.55;;;;;;;5.62;92.98;102461.38;2078703;28;20097;-64
2022/05/06 02:41:17;;;;;;;13.65;10.20;;;;;;;5.67;91.93;102460.59;2078818;28;43474;-64
2022/05/06 02:42:24;;;;;;;17.15;10.20;;;;;;;5.69;92.09;102460.63;2062773;28;20174;-65
2022/05/06 02:43:26;;;;;;;13.30;10.38;;;;;;;5.74;92.99;102459.88;2063259;28;20054;-64
2022/05/06 02:44:29;;;;;;;15.68;10.05;;;;;;;5.76;92.93;102459.91;2063250;28;20095;-64
2022/05/06 02:45:33;;;;;;;12.30;8.93;;;;;;;5.78;92.11;102462.56;2062917;28;20038;-64
2022/05/06 02:46:36;;;;;;;15.23;9.32;;;;;;;5.80;92.27;102468.84;2063449;28;20128;-64
2022/05/06 02:47:38;;;;;;;12.88;8.60;;;;;;;5.81;92.66;102463.53;2062237;28;45688;-64
2022/05/06 02:48:40;;;;;;;15.13;9.23;;;;;;;5.84;92.07;102460.06;2071190;28;20054;-65
2022/05/06 02:49:46;;;;;;;12.82;8.57;;;;;;;5.85;92.22;102457.44;2079351;28;20022;-64
2022/05/06 02:50:50;;;;;;;13.27;8.68;;;;;;;5.86;91.39;102453.00;2071177;28;20049;-65
2022/05/06 02:51:53;;;;;;;12.23;8.45;;;;;;;5.89;91.82;102463.72;2063336;28;20038;-65
2022/05/06 02:52:55;;;;;;;16.10;10.10;;;;;;;5.90;92.30;102458.44;2071107;28;20923;-64
2022/05/06 02:53:58;;;;;;;13.35;8.60;;;;;;;5.91;91.40;102457.56;2070979;28;20154;-65
2022/05/06 02:55:06;;;;;;;12.60;8.40;;;;;;;5.91;92.25;102454.00;2063701;28;20066;-64
2022/05/06 02:56:08;;;;;;;12.32;8.98;;;;;;;5.92;92.08;102458.44;2071099;28;24930;-64
2022/05/06 02:57:19;;;;;;;12.98;9.25;;;;;;;5.95;92.12;102458.50;2072245;28;20038;-65
2022/05/06 02:58:21;;;;;;;9.70;6.75;;;;;;;5.95;92.29;102453.19;2072558;28;20050;-65
2022/05/06 02:59:23;;;;;;;9.63;7.20;;;;;;;5.94;92.30;102451.44;2072798;28;20038;-64
2022/05/06 03:00:28;;;;;;;11.60;6.93;;;;;;;5.95;91.75;102453.19;2072656;28;20051;-65
2022/05/06 03:01:35;;;;;;;12.63;8.63;;;;;;;5.93;92.25;102447.84;2072029;28;20031;-65
2022/05/06 03:02:41;;;;;;;14.20;9.73;;;;;;;5.95;91.44;102452.31;2066461;28;20122;-65
2022/05/06 03:03:44;;;;;;;13.18;8.40;;;;;;;5.95;92.45;102453.19;2064211;28;21087;-65
2022/05/06 03:04:53;;;;;;;11.57;8.10;;;;;;;5.96;91.54;102447.06;2065094;28;20122;-65
2022/05/06 03:05:56;;;;;;;14.95;9.90;;;;;;;5.98;91.37;102460.41;2064393;28;20050;-65
2022/05/06 03:06:58;;;;;;;13.00;9.40;;;;;;;5.97;92.09;102453.28;2071141;28;44566;-64
2022/05/06 03:09:39;;;;;;;11.50;8.40;;;;;;;5.97;92.25;102456.81;2056092;28;20062;-67
2022/05/06 03:10:41;;;;;;;10.55;8.00;;;;;;;5.98;92.19;102453.31;2062876;28;21027;-66
2022/05/06 03:11:43;;;;;;;13.25;9.25;;;;;;;5.97;91.32;102453.28;2064101;28;20082;-67
2022/05/06 03:12:55;;;;;;;10.75;8.35;;;;;;;5.97;91.90;102450.63;2055387;28;20046;-66
2022/05/06 03:13:57;;;;;;;13.85;9.65;;;;;;;5.96;91.45;102451.47;2050516;28;20050;-66
2022/05/06 03:15:07;;;;;;;14.18;9.57;;;;;;;5.96;91.04;102449.72;2063807;28;20039;-67
2022/05/06 03:16:15;;;;;;;14.93;9.63;;;;;;;5.95;91.94;102450.53;2064056;28;20053;-67
2022/05/06 03:17:17;;;;;;;17.33;10.02;;;;;;;5.95;92.12;102447.88;2063408;28;42695;-67
2022/05/06 03:18:21;;;;;;;15.18;10.57;;;;;;;5.96;91.60;102448.81;2063578;28;45578;-66
2022/05/06 03:19:23;;;;;;;14.82;10.32;;;;;;;5.97;92.12;102450.63;2062960;28;45588;-67
2022/05/06 03:20:25;;;;;;;13.57;9.55;;;;;;;5.96;92.34;102454.13;2055348;28;44130;-67
2022/05/06 03:21:27;;;;;;;14.65;10.35;;;;;;;5.97;91.47;102446.19;2047448;28;46815;-67
2022/05/06 03:22:38;;;;;;;13.40;9.98;;;;;;;5.98;92.17;102442.66;2056668;28;20162;-67
2022/05/06 03:23:40;;;;;;;13.95;10.32;;;;;;;5.99;92.51;102448.88;2055776;28;25876;-66
2022/05/06 03:24:44;;;;;;;13.68;10.25;;;;;;;6.00;91.87;102450.69;2055541;28;45935;-66
2022/05/06 03:25:45;;;;;;;15.20;10.52;;;;;;;6.00;92.42;102448.03;2071388;28;44288;-66
2022/05/06 03:26:47;;;;;;;21.02;12.57;;;;;;;6.05;92.31;102441.94;2071723;28;43090;-66
2022/05/06 03:28:07;;;;;;;19.85;11.75;;;;;;;6.09;92.38;102446.44;2072538;28;45793;-66
2022/05/06 03:29:09;;;;;;;;;;;;;;;6.06;91.82;102445.47;2073036;28;26489;-66
2022/05/06 03:30:12;;;;;;;13.93;9.80;;;;;;;6.04;92.33;102445.44;2064222;28;21040;-66
2022/05/06 03:31:18;;;;;;;16.88;10.23;;;;;;;6.02;91.44;102447.19;2064693;28;20240;-64
2022/05/06 03:32:31;;;;;;;14.77;9.82;;;;;;;6.02;91.44;102447.19;2072218;28;20042;-66
2022/05/06 03:33:34;;;;;;;15.98;10.77;;;;;;;6.00;91.76;102446.25;2064154;28;20046;-66
2022/05/06 03:34:43;;;;;;;14.90;10.38;;;;;;;6.01;91.76;102453.38;2057171;28;20031;-66
2022/05/06 03:35:45;;;;;;;12.00;9.13;;;;;;;6.00;91.52;102451.56;2063984;28;20993;-66
2022/05/06 03:36:48;;;;;;;17.40;11.38;;;;;;;5.99;91.69;102455.06;2064254;28;20051;-66
2022/05/06 03:37:52;;;;;;;13.00;9.70;;;;;;;5.99;92.44;102449.75;2055636;28;20160;-66
2022/05/06 03:38:54;;;;;;;15.90;9.88;;;;;;;5.96;91.92;102444.41;2048087;28;20190;-66
2022/05/06 03:39:59;;;;;;;15.80;9.55;;;;;;;5.93;91.46;102447.84;2057992;28;20169;-66
2022/05/06 03:41:02;;;;;;;15.88;10.10;;;;;;;5.90;92.42;102447.81;2057232;28;20086;-66
2022/05/06 03:42:04;;;;;;;15.15;10.57;;;;;;;5.86;92.12;102445.03;2055962;28;20098;-67
2022/05/06 03:43:07;;;;;;;16.95;10.50;;;;;;;5.83;92.17;102447.63;2056254;28;20043;-66
2022/05/06 03:44:11;;;;;;;16.13;10.75;;;;;;;5.80;92.48;102447.59;2056088;28;20067;-66
2022/05/06 03:45:17;;;;;;;16.85;11.07;;;;;;;5.78;91.91;102443.97;2064875;28;20110;-66
2022/05/06 03:46:20;;;;;;;12.07;8.98;;;;;;;5.74;91.28;102446.59;2071761;28;20046;-66
2022/05/06 03:47:23;;;;;;;19.98;11.52;;;;;;;5.72;91.36;102447.41;2064499;28;20096;-66
2022/05/06 03:48:25;;;;;;;15.38;11.40;;;;;;;5.71;92.47;102445.63;2064261;28;20039;-66
2022/05/06 03:49:30;;;;;;;18.00;11.65;;;;;;;5.70;92.85;102441.16;2056522;28;20179;-66
2022/05/06 03:51:55;;;;;;;15.20;11.13;;;;;;;5.71;91.96;102446.50;2063778;28;20055;-66
2022/05/06 03:52:59;;;;;;;15.15;10.65;;;;;;;5.71;91.60;102443.84;2065948;28;43205;-66
2022/05/06 03:54:03;;;;;;;16.67;11.52;;;;;;;5.72;92.70;102443.00;2063973;28;20105;-66
2022/05/06 03:55:07;;;;;;;19.52;12.27;;;;;;;5.71;91.85;102433.22;2055695;28;20053;-67
2022/05/06 03:56:10;;;;;;;16.20;10.98;;;;;;;5.72;91.55;102437.69;2056323;28;20741;-66
2022/05/06 03:57:16;;;;;;;16.50;11.80;;;;;;;5.71;91.38;102438.53;2056588;28;20141;-66
2022/05/06 03:58:18;;;;;;;16.42;11.25;;;;;;;5.71;91.60;102443.84;2056128;28;20777;-66
2022/05/06 03:59:20;;;;;;;16.17;11.07;;;;;;;5.72;91.66;102435.03;2063895;28;20070;-66
2022/05/06 04:00:29;;;;;;;15.95;11.20;;;;;;;5.73;92.29;102436.81;2063669;28;20109;-66
2022/05/06 04:01:38;;;;;;;16.40;10.98;;;;;;;5.74;92.58;102443.94;2056654;28;20829;-66
2022/05/06 04:02:46;;;;;;;16.10;10.57;;;;;;;5.73;92.55;102443.88;2056054;28;20039;-67
2022/05/06 04:03:55;;;;;;;15.80;10.07;;;;;;;5.77;91.57;102442.19;2056982;28;20095;-66
2022/05/06 04:05:04;;;;;;;15.75;11.25;;;;;;;5.74;91.74;102438.63;2056234;28;20063;-66
2022/05/06 04:06:06;;;;;;;15.23;10.63;;;;;;;5.77;92.12;102434.22;2056031;28;20047;-67
2022/05/06 04:07:08;;;;;;;15.50;10.43;;;;;;;5.81;91.54;102450.25;2063404;28;20050;-66
2022/05/06 04:08:18;;;;;;;18.00;11.53;;;;;;;5.85;91.57;102449.47;2063823;28;20042;-66
2022/05/06 04:09:21;;;;;;;14.85;10.93;;;;;;;5.87;91.34;102449.50;2063196;28;20185;-66
2022/05/06 04:10:24;;;;;;;13.65;10.45;;;;;;;5.88;92.16;102449.50;2071743;28;20930;-66
2022/05/06 04:11:26;;;;;;;16.92;11.43;;;;;;;5.88;90.93;102445.97;2063721;28;20953;-66
2022/05/06 04:12:33;;;;;;;14.45;9.82;;;;;;;5.91;91.15;102444.25;2065317;28;20273;-66
2022/05/06 04:13:41;;;;;;;14.60;10.25;;;;;;;5.95;91.70;102445.22;2063769;28;20877;-66
2022/05/06 04:14:44;;;;;;;12.25;9.10;;;;;;;5.99;91.06;102452.41;2046547;28;20048;-66
2022/05/06 04:15:48;;;;;;;12.40;9.25;;;;;;;6.03;91.21;102450.72;2056552;28;20837;-67
2022/05/06 04:16:50;;;;;;;14.40;9.65;;;;;;;6.06;91.74;102451.69;2055633;28;20809;-65
2022/05/06 04:18:00;;;;;;;12.10;8.98;;;;;;;6.16;91.80;102447.47;2050412;28;20051;-65
2022/05/06 04:19:05;;;;;;;12.50;8.73;;;;;;;6.33;91.51;102452.19;2056388;28;20090;-66
2022/05/06 04:24:13;;;;;;;13.45;9.45;;;;;;;7.68;88.86;102453.47;2072005;28;20141;-66
2022/05/06 04:25:16;;;;;;;14.40;9.95;;;;;;;7.97;87.87;102444.09;2055316;28;20058;-67
2022/05/06 04:26:19;;;;;;;13.35;9.20;;;;;;;8.30;87.21;102448.03;2047988;28;20048;-66
2022/05/06 04:27:27;;;;;;;15.88;8.95;;;;;;;8.64;86.57;102439.50;2057883;28;20161;-66
2022/05/06 04:28:34;;;;;;;13.25;8.27;;;;;;;8.98;84.23;102443.34;2064349;28;20936;-66
2022/05/06 04:29:37;;;;;;;15.07;9.32;;;;;;;9.28;83.24;102436.47;2056144;28;20840;-65
2022/05/06 04:30:40;;;;;;;12.82;8.90;;;;;;;9.59;82.71;102440.19;2055937;28;20038;-66
2022/05/06 04:31:47;;;;;;;10.45;8.50;;;;;;;9.91;80.86;102432.31;2055971;28;20102;-70
2022/05/06 04:32:51;;;;;;;10.68;7.60;;;;;;;10.23;79.39;102435.97;2064205;28;20042;-66
2022/05/06 04:33:56;;;;;;;13.75;8.45;;;;;;;10.50;77.69;102440.53;2063116;28;21022;-66
2022/05/06 04:35:06;;;;;;;11.95;8.02;;;;;;;10.78;75.47;102441.44;2056892;28;20824;-66
2022/05/06 04:36:09;;;;;;;11.32;7.82;;;;;;;11.07;74.77;102438.78;2064214;28;20181;-66
2022/05/06 04:37:14;;;;;;;13.00;8.40;;;;;;;11.40;73.77;102436.03;2063895;28;21030;-66
2022/05/06 04:38:18;;;;;;;9.68;7.15;;;;;;;11.70;73.24;102440.44;2063515;28;20090;-66
2022/05/06 04:39:19;;;;;;;9.68;7.63;;;;;;;11.95;71.97;102429.59;2062782;28;43456;-66
2022/05/06 04:40:26;;;;;;;8.65;6.90;;;;;;;12.26;71.07;102433.03;2063082;28;20896;-66
2022/05/06 04:41:28;;;;;;;11.55;7.55;;;;;;;12.51;69.97;102427.50;2055336;28;20158;-66
2022/05/06 04:42:31;;;;;;;9.40;6.55;;;;;;;12.80;69.10;102427.28;2055576;28;20056;-66
2022/05/06 04:43:33;;;;;;;9.07;7.07;;;;;;;13.06;68.21;102424.34;2063796;28;20043;-65
2022/05/06 04:44:35;;;;;;;9.13;7.57;;;;;;;13.33;66.54;102417.84;2063470;28;20098;-66
2022/05/06 04:45:42;;;;;;;9.63;6.97;;;;;;;13.60;65.69;102421.13;2063691;28;20137;-66
2022/05/06 04:46:46;;;;;;;8.25;6.75;;;;;;;13.88;65.24;102418.09;2064742;28;20039;-66
2022/05/06 04:47:49;;;;;;;8.80;7.38;;;;;;;14.01;64.14;102425.09;2063370;28;20039;-66
2022/05/06 04:48:52;;;;;;;10.68;7.18;;;;;;;14.37;63.18;102421.91;2064412;28;20127;-66
2022/05/06 04:49:55;;;;;;;8.32;7.32;;;;;;;14.70;62.26;102420.53;2063206;28;20162;-65
2022/05/06 04:50:57;;;;;;;8.57;6.85;;;;;;;14.86;60.85;102419.34;2063805;28;20064;-65
2022/05/06 04:51:59;;;;;;;11.45;8.15;;;;;;;15.18;61.16;102412.50;2063199;28;20173;-64
2022/05/06 04:53:05;;;;;;;10.63;6.68;;;;;;;15.42;60.21;102421.94;2063648;28;20038;-65
2022/05/06 04:54:10;;;;;;;10.52;7.20;;;;;;;15.77;58.85;102420.38;2062880;28;20050;-65
2022/05/06 04:55:13;;;;;;;11.95;7.55;;;;;;;15.97;58.21;102416.34;2055937;28;20078;-65
2022/05/06 04:56:14;;;;;;;9.05;7.10;;;;;;;16.10;57.45;102414.28;2055418;28;20043;-65
2022/05/06 04:57:16;;;;;;;9.02;7.32;;;;;;;16.30;55.44;102417.41;2063797;28;20068;-65
2022/05/06 04:58:19;;;;;;;10.77;6.97;;;;;;;16.36;55.34;102419.94;2064116;28;20047;-65
2022/05/06 04:59:22;;;;;;;12.63;7.68;;;;;;;16.34;54.78;102421.81;2063657;28;20042;-65
2022/05/06 05:00:26;;;;;;;8.68;6.65;;;;;;;16.59;55.32;102424.81;2064213;28;20875;-64
2022/05/06 05:01:28;;;;;;;8.38;7.47;;;;;;;16.55;53.85;102419.53;2063489;28;20175;-65
2022/05/06 05:02:30;;;;;;;12.00;7.45;;;;;;;16.80;53.51;102419.81;2063063;28;44368;-65
2022/05/06 05:03:34;;;;;;;9.32;7.13;;;;;;;17.04;53.30;102423.72;2063347;28;20050;-65
2022/05/06 05:04:37;;;;;;;10.88;7.43;;;;;;;16.87;52.17;102425.97;2055649;28;20122;-63
2022/05/06 05:05:43;;;;;;;10.32;8.02;;;;;;;16.67;53.91;102419.22;2055916;28;20134;-64
2022/05/06 05:06:45;;;;;;;10.32;8.13;;;;;;;16.94;52.79;102427.59;2062928;28;20844;-65
2022/05/06 05:07:51;;;;;;;10.15;7.68;;;;;;;16.77;52.42;102428.00;2063363;28;20975;-64
2022/05/06 05:08:53;;;;;;;9.93;7.97;;;;;;;17.10;51.96;102425.38;2062129;28;47987;-64
2022/05/06 05:09:55;;;;;;;9.55;7.93;;;;;;;17.52;51.82;102426.03;2071183;28;22071;-65
2022/05/06 05:11:02;;;;;;;8.50;7.60;;;;;;;17.75;51.25;102421.78;2062738;28;20035;-64
2022/05/06 05:12:10;;;;;;;8.95;7.85;;;;;;;18.08;51.21;102419.88;2064455;28;20058;-64